Tropical Cyclones
[Index]
Main Index Home Page Stock Weather Photos Extreme Storms Discussion Storm News and Storm Chasing Reports Tropical Cyclones / Hurricanes / Typhoons Weather Data and Links Wild Fires / Bushfires Weather Observation Techniques Weather Picture Catalogue Tornado Pictures and Reports Stock Video Footage and DVDs for sale
Season 1961-1962 Tropical Cyclone GINA Track Map
Season 1961-1962 Summaries: [BoM-AU] [JTWC-AU] [JTWC-SIO] [JTWC-SPAC] [JTWC-SH]
<<- Previous TC | JTWC 1961-1962 Season | Next TC ->>

click for intensity scale information  Lat/long Grid: Show Hide

 Date Labels: Show Hide

Joint Typhoon Warning Centre Cyclone Data

Name: GINA
Number: 433 / 6212

05 Feb 1962 06:00 UTC to 19 Feb 1962 06:00 UTC

    date/time    lat    long     hPa   cat  kts
1962-02-05 06   15.3    64.2                              
1962-02-05 12   15.4    63.4                              
1962-02-05 18   15.5    62.6                              
1962-02-06 00   15.7    61.9                              
1962-02-06 06   15.9    61.1                              
1962-02-06 12   16.1    60.3                              
1962-02-06 18   16.3    59.5                              
1962-02-07 00   16.5    58.7                              
1962-02-07 06   16.8    57.8                              
1962-02-07 12   17.0    57.0                              
1962-02-07 18   17.2    56.1                              
1962-02-08 00   17.3    55.3                              
1962-02-08 06   17.3    54.4                              
1962-02-08 12   17.3    53.4                              
1962-02-08 18   17.3    52.4                              
1962-02-09 00   17.2    51.4                              
1962-02-09 06   17.0    50.3                              
1962-02-09 12   16.9    49.0                              
1962-02-09 18   16.9    47.6                              
1962-02-10 00   17.0    46.3                              
1962-02-10 06   17.3    45.0                              
1962-02-10 12   17.9    43.7                              
1962-02-10 18   18.5    42.5                              
1962-02-11 00   19.0    41.4                              
1962-02-11 06   19.4    40.3                              
1962-02-11 12   19.6    39.2                              
1962-02-11 18   19.8    38.2                              
1962-02-12 00   20.0    36.9                              
1962-02-12 06   20.1    35.8                              
1962-02-12 12   20.2    35.3                              
1962-02-12 18   20.2    34.8                              
1962-02-13 00   20.2    34.3                              
1962-02-13 06   20.4    33.8                              
1962-02-13 12   21.1    33.4                              
1962-02-13 18   22.1    33.0                              
1962-02-14 00   23.0    33.2                              
1962-02-14 06   23.9    34.0                              
1962-02-14 12   24.6    35.5                              
1962-02-14 18   25.0    37.0                              
1962-02-15 00   25.1    37.7                              
1962-02-15 06   25.2    38.7                              
1962-02-15 12   25.5    40.5                              
1962-02-15 18   25.8    42.3                              
1962-02-16 00   26.0    43.9                              
1962-02-16 06   26.2    45.6                              
1962-02-16 12   26.5    47.3                              
1962-02-16 18   26.8    49.0                              
1962-02-17 00   27.3    50.6                              
1962-02-17 06   27.8    52.0                              
1962-02-17 12   28.4    53.3                              
1962-02-17 18   29.0    54.6                              
1962-02-18 00   29.4    55.8                              
1962-02-18 06   29.9    57.1                              
1962-02-18 12   30.9    58.8                              
1962-02-18 18   32.0    60.6                              
1962-02-19 00   33.1    62.2                              
1962-02-19 06   34.2    63.6                              
Winds are 1-min average.

Tropical cyclone tracks developed by Michael Bath using data from the Joint Typhoon Warning Centre Best Tracks and Google Maps.


[Australian Severe Weather index] [Copyright Notice] [Email Contacts] [Search This Site] [Privacy Policy]
Document: tropical_cyclone_gina.htm Updated: 18 September 2016